sensor_id;sensor_type;location;lat;lon;timestamp;temperature;humidity
13928;DHT22;7036;50.834;4.718;2023-04-24T00:01:01;18.30;59.20
13928;DHT22;7036;50.834;4.718;2023-04-24T00:03:28;18.30;59.10
13928;DHT22;7036;50.834;4.718;2023-04-24T00:05:56;18.30;59.30
13928;DHT22;7036;50.834;4.718;2023-04-24T00:08:24;18.30;59.30
13928;DHT22;7036;50.834;4.718;2023-04-24T00:10:52;18.30;59.30
13928;DHT22;7036;50.834;4.718;2023-04-24T00:13:19;18.30;59.20
13928;DHT22;7036;50.834;4.718;2023-04-24T00:15:47;18.30;59.30
13928;DHT22;7036;50.834;4.718;2023-04-24T00:18:15;18.30;59.30
13928;DHT22;7036;50.834;4.718;2023-04-24T00:20:43;18.20;59.30
13928;DHT22;7036;50.834;4.718;2023-04-24T00:23:11;18.20;59.20
13928;DHT22;7036;50.834;4.718;2023-04-24T00:25:39;18.20;59.20
13928;DHT22;7036;50.834;4.718;2023-04-24T00:28:08;18.20;59.20
13928;DHT22;7036;50.834;4.718;2023-04-24T00:30:34;18.20;59.10
13928;DHT22;7036;50.834;4.718;2023-04-24T00:33:02;18.20;59.20
13928;DHT22;7036;50.834;4.718;2023-04-24T00:35:29;18.20;59.10
13928;DHT22;7036;50.834;4.718;2023-04-24T00:37:57;18.20;59.20
13928;DHT22;7036;50.834;4.718;2023-04-24T00:40:25;18.20;59.10
13928;DHT22;7036;50.834;4.718;2023-04-24T00:42:52;18.20;59.10
13928;DHT22;7036;50.834;4.718;2023-04-24T00:45:20;18.20;59.20
13928;DHT22;7036;50.834;4.718;2023-04-24T00:47:48;18.20;59.20
13928;DHT22;7036;50.834;4.718;2023-04-24T00:50:16;18.20;59.20
13928;DHT22;7036;50.834;4.718;2023-04-24T00:52:44;18.20;59.20
13928;DHT22;7036;50.834;4.718;2023-04-24T00:55:11;18.20;59.10
13928;DHT22;7036;50.834;4.718;2023-04-24T00:57:39;18.10;59.20
13928;DHT22;7036;50.834;4.718;2023-04-24T01:00:07;18.20;59.20
13928;DHT22;7036;50.834;4.718;2023-04-24T01:02:34;18.20;59.20
13928;DHT22;7036;50.834;4.718;2023-04-24T01:05:01;18.20;59.00
13928;DHT22;7036;50.834;4.718;2023-04-24T01:07:28;18.10;59.00
13928;DHT22;7036;50.834;4.718;2023-04-24T01:09:55;18.10;59.10
13928;DHT22;7036;50.834;4.718;2023-04-24T01:12:23;18.10;59.10
13928;DHT22;7036;50.834;4.718;2023-04-24T01:14:51;18.10;59.10
13928;DHT22;7036;50.834;4.718;2023-04-24T01:17:19;18.20;59.10
13928;DHT22;7036;50.834;4.718;2023-04-24T01:19:47;18.10;59.10
13928;DHT22;7036;50.834;4.718;2023-04-24T01:22:15;18.10;59.10
13928;DHT22;7036;50.834;4.718;2023-04-24T01:24:42;18.10;59.00
13928;DHT22;7036;50.834;4.718;2023-04-24T01:27:10;18.10;59.10
13928;DHT22;7036;50.834;4.718;2023-04-24T01:29:38;18.10;59.10
13928;DHT22;7036;50.834;4.718;2023-04-24T01:32:06;18.10;59.10
13928;DHT22;7036;50.834;4.718;2023-04-24T01:34:33;18.10;59.00
13928;DHT22;7036;50.834;4.718;2023-04-24T01:37:01;18.10;59.10
13928;DHT22;7036;50.834;4.718;2023-04-24T01:39:29;18.10;59.00
13928;DHT22;7036;50.834;4.718;2023-04-24T01:41:57;18.10;59.10
13928;DHT22;7036;50.834;4.718;2023-04-24T01:44:25;18.10;59.00
13928;DHT22;7036;50.834;4.718;2023-04-24T01:46:55;18.10;59.00
13928;DHT22;7036;50.834;4.718;2023-04-24T01:49:21;18.10;58.90
13928;DHT22;7036;50.834;4.718;2023-04-24T01:51:49;18.10;59.10
13928;DHT22;7036;50.834;4.718;2023-04-24T01:54:16;18.10;58.90
13928;DHT22;7036;50.834;4.718;2023-04-24T01:56:44;18.10;59.10
13928;DHT22;7036;50.834;4.718;2023-04-24T01:59:12;18.10;59.00
13928;DHT22;7036;50.834;4.718;2023-04-24T02:01:39;18.10;59.00
13928;DHT22;7036;50.834;4.718;2023-04-24T02:04:07;18.10;59.10
13928;DHT22;7036;50.834;4.718;2023-04-24T02:06:36;18.10;59.10
13928;DHT22;7036;50.834;4.718;2023-04-24T02:09:03;18.10;59.00
13928;DHT22;7036;50.834;4.718;2023-04-24T02:11:31;18.10;58.90
13928;DHT22;7036;50.834;4.718;2023-04-24T02:13:57;18.00;58.90
13928;DHT22;7036;50.834;4.718;2023-04-24T02:16:25;18.10;59.10
13928;DHT22;7036;50.834;4.718;2023-04-24T02:18:53;18.10;59.10
13928;DHT22;7036;50.834;4.718;2023-04-24T02:21:21;18.10;59.10
13928;DHT22;7036;50.834;4.718;2023-04-24T02:23:49;18.00;58.90
13928;DHT22;7036;50.834;4.718;2023-04-24T02:26:16;18.10;58.90
13928;DHT22;7036;50.834;4.718;2023-04-24T02:28:43;18.10;58.90
13928;DHT22;7036;50.834;4.718;2023-04-24T02:31:10;18.10;58.90
13928;DHT22;7036;50.834;4.718;2023-04-24T02:33:38;18.00;59.00
13928;DHT22;7036;50.834;4.718;2023-04-24T02:36:05;18.00;58.80
13928;DHT22;7036;50.834;4.718;2023-04-24T02:38:33;18.00;58.90
13928;DHT22;7036;50.834;4.718;2023-04-24T02:41:01;18.10;58.90
13928;DHT22;7036;50.834;4.718;2023-04-24T02:43:28;18.00;58.80
13928;DHT22;7036;50.834;4.718;2023-04-24T02:45:56;18.00;58.90
13928;DHT22;7036;50.834;4.718;2023-04-24T02:48:24;18.00;58.90
13928;DHT22;7036;50.834;4.718;2023-04-24T02:50:52;18.00;59.00
13928;DHT22;7036;50.834;4.718;2023-04-24T02:53:20;18.00;58.90
13928;DHT22;7036;50.834;4.718;2023-04-24T02:55:49;18.00;58.90
13928;DHT22;7036;50.834;4.718;2023-04-24T02:58:16;18.00;58.80
13928;DHT22;7036;50.834;4.718;2023-04-24T03:00:44;17.90;59.00
13928;DHT22;7036;50.834;4.718;2023-04-24T03:03:12;18.00;59.00
13928;DHT22;7036;50.834;4.718;2023-04-24T03:05:39;17.90;58.80
13928;DHT22;7036;50.834;4.718;2023-04-24T03:08:07;18.00;59.00
13928;DHT22;7036;50.834;4.718;2023-04-24T03:10:35;18.00;58.90
13928;DHT22;7036;50.834;4.718;2023-04-24T03:13:03;18.00;58.90
13928;DHT22;7036;50.834;4.718;2023-04-24T03:15:31;18.00;58.90
13928;DHT22;7036;50.834;4.718;2023-04-24T03:17:59;17.90;58.90
13928;DHT22;7036;50.834;4.718;2023-04-24T03:20:28;18.00;59.00
13928;DHT22;7036;50.834;4.718;2023-04-24T03:22:54;17.90;58.80
13928;DHT22;7036;50.834;4.718;2023-04-24T03:25:22;17.90;58.90
13928;DHT22;7036;50.834;4.718;2023-04-24T03:27:50;17.90;58.90
13928;DHT22;7036;50.834;4.718;2023-04-24T03:30:19;17.90;59.00
13928;DHT22;7036;50.834;4.718;2023-04-24T03:32:47;17.90;59.00
13928;DHT22;7036;50.834;4.718;2023-04-24T03:35:15;17.90;58.90
13928;DHT22;7036;50.834;4.718;2023-04-24T03:37:41;17.90;58.80
13928;DHT22;7036;50.834;4.718;2023-04-24T03:40:09;17.90;58.80
13928;DHT22;7036;50.834;4.718;2023-04-24T03:42:37;17.90;58.80
13928;DHT22;7036;50.834;4.718;2023-04-24T03:45:04;17.90;58.70
13928;DHT22;7036;50.834;4.718;2023-04-24T03:47:31;17.90;58.70
13928;DHT22;7036;50.834;4.718;2023-04-24T03:49:59;17.90;58.90
13928;DHT22;7036;50.834;4.718;2023-04-24T03:52:28;17.90;58.90
13928;DHT22;7036;50.834;4.718;2023-04-24T03:54:56;17.90;58.90
13928;DHT22;7036;50.834;4.718;2023-04-24T03:57:23;17.90;58.80
13928;DHT22;7036;50.834;4.718;2023-04-24T03:59:50;17.90;58.80
13928;DHT22;7036;50.834;4.718;2023-04-24T04:02:20;17.90;58.90
13928;DHT22;7036;50.834;4.718;2023-04-24T04:04:47;17.90;58.80
13928;DHT22;7036;50.834;4.718;2023-04-24T04:07:15;17.90;58.80
13928;DHT22;7036;50.834;4.718;2023-04-24T04:09:43;17.90;58.70
13928;DHT22;7036;50.834;4.718;2023-04-24T04:12:09;17.90;58.70
13928;DHT22;7036;50.834;4.718;2023-04-24T04:14:36;17.90;58.80
13928;DHT22;7036;50.834;4.718;2023-04-24T04:17:04;17.90;58.90
13928;DHT22;7036;50.834;4.718;2023-04-24T04:19:32;17.80;58.70
13928;DHT22;7036;50.834;4.718;2023-04-24T04:22:00;17.80;58.80
13928;DHT22;7036;50.834;4.718;2023-04-24T04:24:27;17.80;59.30
13928;DHT22;7036;50.834;4.718;2023-04-24T04:26:55;17.80;58.90
13928;DHT22;7036;50.834;4.718;2023-04-24T04:29:23;17.80;58.80
13928;DHT22;7036;50.834;4.718;2023-04-24T04:31:50;17.80;58.80
13928;DHT22;7036;50.834;4.718;2023-04-24T04:34:17;17.80;58.70
13928;DHT22;7036;50.834;4.718;2023-04-24T04:36:45;17.80;58.80
13928;DHT22;7036;50.834;4.718;2023-04-24T04:39:12;17.80;58.70
13928;DHT22;7036;50.834;4.718;2023-04-24T04:41:40;17.80;58.90
13928;DHT22;7036;50.834;4.718;2023-04-24T04:44:07;17.80;58.80
13928;DHT22;7036;50.834;4.718;2023-04-24T04:46:35;17.80;58.90
13928;DHT22;7036;50.834;4.718;2023-04-24T04:49:03;17.80;58.80
13928;DHT22;7036;50.834;4.718;2023-04-24T04:51:31;17.80;58.80
13928;DHT22;7036;50.834;4.718;2023-04-24T04:53:58;17.80;58.70
13928;DHT22;7036;50.834;4.718;2023-04-24T04:56:26;17.80;58.90
13928;DHT22;7036;50.834;4.718;2023-04-24T04:58:54;17.80;58.80
13928;DHT22;7036;50.834;4.718;2023-04-24T05:01:21;17.80;58.80
13928;DHT22;7036;50.834;4.718;2023-04-24T05:03:48;17.80;58.70
13928;DHT22;7036;50.834;4.718;2023-04-24T05:06:15;17.80;58.70
13928;DHT22;7036;50.834;4.718;2023-04-24T05:08:43;17.80;58.90
13928;DHT22;7036;50.834;4.718;2023-04-24T05:11:11;17.80;58.80
13928;DHT22;7036;50.834;4.718;2023-04-24T05:13:39;17.80;58.70
13928;DHT22;7036;50.834;4.718;2023-04-24T05:16:06;17.70;58.80
13928;DHT22;7036;50.834;4.718;2023-04-24T05:18:34;17.70;58.70
13928;DHT22;7036;50.834;4.718;2023-04-24T05:21:01;17.80;58.80
13928;DHT22;7036;50.834;4.718;2023-04-24T05:23:28;17.70;58.80
13928;DHT22;7036;50.834;4.718;2023-04-24T05:25:56;17.70;58.80
13928;DHT22;7036;50.834;4.718;2023-04-24T05:28:23;17.70;58.70
13928;DHT22;7036;50.834;4.718;2023-04-24T05:30:52;17.80;58.80
13928;DHT22;7036;50.834;4.718;2023-04-24T05:33:19;17.70;58.70
13928;DHT22;7036;50.834;4.718;2023-04-24T05:35:47;17.70;58.80
13928;DHT22;7036;50.834;4.718;2023-04-24T05:38:14;17.70;58.70
13928;DHT22;7036;50.834;4.718;2023-04-24T05:40:42;17.70;58.90
13928;DHT22;7036;50.834;4.718;2023-04-24T05:43:09;17.70;58.80
13928;DHT22;7036;50.834;4.718;2023-04-24T05:45:37;17.70;58.80
13928;DHT22;7036;50.834;4.718;2023-04-24T05:48:04;17.70;58.90
13928;DHT22;7036;50.834;4.718;2023-04-24T05:50:32;17.70;58.70
13928;DHT22;7036;50.834;4.718;2023-04-24T05:53:00;17.70;58.10
13928;DHT22;7036;50.834;4.718;2023-04-24T05:55:27;17.70;58.60
13928;DHT22;7036;50.834;4.718;2023-04-24T05:57:54;17.70;58.60
13928;DHT22;7036;50.834;4.718;2023-04-24T06:00:21;17.70;58.70
13928;DHT22;7036;50.834;4.718;2023-04-24T06:02:48;17.70;58.70
13928;DHT22;7036;50.834;4.718;2023-04-24T06:05:16;17.70;58.70
13928;DHT22;7036;50.834;4.718;2023-04-24T06:07:44;17.70;58.80
13928;DHT22;7036;50.834;4.718;2023-04-24T06:10:12;17.70;58.80
13928;DHT22;7036;50.834;4.718;2023-04-24T06:12:40;17.70;58.60
13928;DHT22;7036;50.834;4.718;2023-04-24T06:15:07;17.70;58.60
13928;DHT22;7036;50.834;4.718;2023-04-24T06:17:34;17.70;58.70
13928;DHT22;7036;50.834;4.718;2023-04-24T06:20:02;17.70;58.80
13928;DHT22;7036;50.834;4.718;2023-04-24T06:22:29;17.70;58.60
13928;DHT22;7036;50.834;4.718;2023-04-24T06:24:57;17.70;58.70
13928;DHT22;7036;50.834;4.718;2023-04-24T06:27:24;17.70;58.60
13928;DHT22;7036;50.834;4.718;2023-04-24T06:29:51;17.70;58.70
13928;DHT22;7036;50.834;4.718;2023-04-24T06:32:21;17.70;58.80
13928;DHT22;7036;50.834;4.718;2023-04-24T06:34:46;17.70;58.70
13928;DHT22;7036;50.834;4.718;2023-04-24T06:37:14;17.60;58.80
13928;DHT22;7036;50.834;4.718;2023-04-24T06:39:42;17.60;58.90
13928;DHT22;7036;50.834;4.718;2023-04-24T06:42:09;17.60;58.70
13928;DHT22;7036;50.834;4.718;2023-04-24T06:44:37;17.60;58.80
13928;DHT22;7036;50.834;4.718;2023-04-24T06:47:09;17.70;58.80
13928;DHT22;7036;50.834;4.718;2023-04-24T06:49:34;17.70;58.80
13928;DHT22;7036;50.834;4.718;2023-04-24T06:52:01;17.60;58.60
13928;DHT22;7036;50.834;4.718;2023-04-24T06:54:29;17.60;58.80
13928;DHT22;7036;50.834;4.718;2023-04-24T06:56:57;17.60;58.90
13928;DHT22;7036;50.834;4.718;2023-04-24T06:59:25;17.60;58.80
13928;DHT22;7036;50.834;4.718;2023-04-24T07:01:53;17.60;58.90
13928;DHT22;7036;50.834;4.718;2023-04-24T07:04:20;17.60;58.70
13928;DHT22;7036;50.834;4.718;2023-04-24T07:06:48;17.60;58.90
13928;DHT22;7036;50.834;4.718;2023-04-24T07:09:16;17.60;58.80
13928;DHT22;7036;50.834;4.718;2023-04-24T07:11:45;17.60;58.90
13928;DHT22;7036;50.834;4.718;2023-04-24T07:14:12;17.60;58.60
13928;DHT22;7036;50.834;4.718;2023-04-24T07:16:39;17.60;58.60
13928;DHT22;7036;50.834;4.718;2023-04-24T07:19:07;17.60;58.80
13928;DHT22;7036;50.834;4.718;2023-04-24T07:21:35;17.60;58.80
13928;DHT22;7036;50.834;4.718;2023-04-24T07:24:05;17.60;58.90
13928;DHT22;7036;50.834;4.718;2023-04-24T07:26:32;17.60;58.70
13928;DHT22;7036;50.834;4.718;2023-04-24T07:29:01;17.60;58.80
13928;DHT22;7036;50.834;4.718;2023-04-24T07:31:27;17.60;58.70
13928;DHT22;7036;50.834;4.718;2023-04-24T07:33:55;17.60;58.60
13928;DHT22;7036;50.834;4.718;2023-04-24T07:36:23;17.60;58.80
13928;DHT22;7036;50.834;4.718;2023-04-24T07:38:51;17.70;58.70
13928;DHT22;7036;50.834;4.718;2023-04-24T07:41:19;17.70;58.60
13928;DHT22;7036;50.834;4.718;2023-04-24T07:43:46;17.70;58.60
13928;DHT22;7036;50.834;4.718;2023-04-24T07:46:14;17.90;58.50
13928;DHT22;7036;50.834;4.718;2023-04-24T07:48:42;18.00;58.40
13928;DHT22;7036;50.834;4.718;2023-04-24T07:51:10;18.10;58.40
13928;DHT22;7036;50.834;4.718;2023-04-24T07:53:38;18.20;58.30
13928;DHT22;7036;50.834;4.718;2023-04-24T07:56:06;18.30;58.20
13928;DHT22;7036;50.834;4.718;2023-04-24T07:58:34;18.50;58.20
13928;DHT22;7036;50.834;4.718;2023-04-24T08:01:03;18.50;58.00
13928;DHT22;7036;50.834;4.718;2023-04-24T08:03:29;18.50;57.90
13928;DHT22;7036;50.834;4.718;2023-04-24T08:05:57;18.70;57.90
13928;DHT22;7036;50.834;4.718;2023-04-24T08:08:24;18.70;57.80
13928;DHT22;7036;50.834;4.718;2023-04-24T08:10:52;18.70;57.80
13928;DHT22;7036;50.834;4.718;2023-04-24T08:13:20;18.80;57.90
13928;DHT22;7036;50.834;4.718;2023-04-24T08:15:47;18.80;57.90
13928;DHT22;7036;50.834;4.718;2023-04-24T08:18:15;18.90;57.80
13928;DHT22;7036;50.834;4.718;2023-04-24T08:20:43;18.90;57.80
13928;DHT22;7036;50.834;4.718;2023-04-24T08:23:11;18.90;57.80
13928;DHT22;7036;50.834;4.718;2023-04-24T08:25:39;19.00;57.80
13928;DHT22;7036;50.834;4.718;2023-04-24T08:28:08;19.00;57.70
13928;DHT22;7036;50.834;4.718;2023-04-24T08:30:34;19.00;57.70
13928;DHT22;7036;50.834;4.718;2023-04-24T08:33:01;19.00;57.70
13928;DHT22;7036;50.834;4.718;2023-04-24T08:35:28;19.00;57.70
13928;DHT22;7036;50.834;4.718;2023-04-24T08:37:55;19.00;57.80
13928;DHT22;7036;50.834;4.718;2023-04-24T08:40:27;19.00;58.10
13928;DHT22;7036;50.834;4.718;2023-04-24T08:42:51;19.00;57.70
13928;DHT22;7036;50.834;4.718;2023-04-24T08:45:20;19.00;57.70
13928;DHT22;7036;50.834;4.718;2023-04-24T08:47:46;19.00;57.60
13928;DHT22;7036;50.834;4.718;2023-04-24T08:50:14;19.00;57.00
13928;DHT22;7036;50.834;4.718;2023-04-24T08:52:43;19.00;57.80
13928;DHT22;7036;50.834;4.718;2023-04-24T08:55:09;19.00;57.60
13928;DHT22;7036;50.834;4.718;2023-04-24T08:57:38;19.00;57.70
13928;DHT22;7036;50.834;4.718;2023-04-24T09:00:04;19.00;57.70
13928;DHT22;7036;50.834;4.718;2023-04-24T09:02:32;19.00;57.70
13928;DHT22;7036;50.834;4.718;2023-04-24T09:04:59;19.00;57.80
13928;DHT22;7036;50.834;4.718;2023-04-24T09:07:26;19.00;57.70
13928;DHT22;7036;50.834;4.718;2023-04-24T09:09:54;18.90;57.80
13928;DHT22;7036;50.834;4.718;2023-04-24T09:12:21;18.90;57.70
13928;DHT22;7036;50.834;4.718;2023-04-24T09:14:48;18.90;57.80
13928;DHT22;7036;50.834;4.718;2023-04-24T09:17:15;18.90;57.70
13928;DHT22;7036;50.834;4.718;2023-04-24T09:19:43;18.90;57.80
13928;DHT22;7036;50.834;4.718;2023-04-24T09:22:10;18.90;57.80
13928;DHT22;7036;50.834;4.718;2023-04-24T09:24:38;18.90;58.00
13928;DHT22;7036;50.834;4.718;2023-04-24T09:27:05;18.90;57.90
13928;DHT22;7036;50.834;4.718;2023-04-24T09:29:32;18.90;58.60
13928;DHT22;7036;50.834;4.718;2023-04-24T09:31:59;18.90;57.90
13928;DHT22;7036;50.834;4.718;2023-04-24T09:34:27;18.90;57.80
13928;DHT22;7036;50.834;4.718;2023-04-24T09:36:54;19.00;57.80
13928;DHT22;7036;50.834;4.718;2023-04-24T09:39:22;19.10;57.70
13928;DHT22;7036;50.834;4.718;2023-04-24T09:41:51;19.10;57.70
13928;DHT22;7036;50.834;4.718;2023-04-24T09:44:20;19.10;57.60
13928;DHT22;7036;50.834;4.718;2023-04-24T09:46:50;19.10;57.50
13928;DHT22;7036;50.834;4.718;2023-04-24T09:49:14;19.10;57.50
13928;DHT22;7036;50.834;4.718;2023-04-24T09:51:42;19.20;57.50
13928;DHT22;7036;50.834;4.718;2023-04-24T09:54:19;19.20;57.60
13928;DHT22;7036;50.834;4.718;2023-04-24T09:56:47;19.20;57.60
13928;DHT22;7036;50.834;4.718;2023-04-24T09:59:13;19.20;57.50
13928;DHT22;7036;50.834;4.718;2023-04-24T10:01:39;19.20;57.50
13928;DHT22;7036;50.834;4.718;2023-04-24T10:04:06;19.20;57.50
13928;DHT22;7036;50.834;4.718;2023-04-24T10:06:34;19.20;57.40
13928;DHT22;7036;50.834;4.718;2023-04-24T10:09:02;19.20;57.40
13928;DHT22;7036;50.834;4.718;2023-04-24T10:11:28;19.20;57.40
13928;DHT22;7036;50.834;4.718;2023-04-24T10:13:55;19.20;57.50
13928;DHT22;7036;50.834;4.718;2023-04-24T10:16:23;19.30;57.60
13928;DHT22;7036;50.834;4.718;2023-04-24T10:18:50;19.30;57.50
13928;DHT22;7036;50.834;4.718;2023-04-24T10:21:18;19.20;57.40
13928;DHT22;7036;50.834;4.718;2023-04-24T10:23:45;19.30;57.40
13928;DHT22;7036;50.834;4.718;2023-04-24T10:26:15;19.30;57.30
13928;DHT22;7036;50.834;4.718;2023-04-24T10:28:42;19.30;57.20
13928;DHT22;7036;50.834;4.718;2023-04-24T10:31:09;19.30;57.30
13928;DHT22;7036;50.834;4.718;2023-04-24T10:33:37;19.30;57.40
13928;DHT22;7036;50.834;4.718;2023-04-24T10:36:05;19.30;57.30
13928;DHT22;7036;50.834;4.718;2023-04-24T10:38:33;19.30;57.40
13928;DHT22;7036;50.834;4.718;2023-04-24T10:41:08;19.30;57.40
13928;DHT22;7036;50.834;4.718;2023-04-24T10:43:35;19.20;57.30
13928;DHT22;7036;50.834;4.718;2023-04-24T10:46:02;19.20;57.30
13928;DHT22;7036;50.834;4.718;2023-04-24T10:48:29;19.20;57.40
13928;DHT22;7036;50.834;4.718;2023-04-24T10:50:56;19.20;57.30
13928;DHT22;7036;50.834;4.718;2023-04-24T10:53:25;19.20;57.40
13928;DHT22;7036;50.834;4.718;2023-04-24T10:55:51;19.20;57.40
13928;DHT22;7036;50.834;4.718;2023-04-24T10:58:22;19.20;57.50
13928;DHT22;7036;50.834;4.718;2023-04-24T11:00:58;19.20;57.40
13928;DHT22;7036;50.834;4.718;2023-04-24T11:03:28;19.20;57.40
13928;DHT22;7036;50.834;4.718;2023-04-24T11:06:08;19.20;58.00
13928;DHT22;7036;50.834;4.718;2023-04-24T11:08:45;19.10;57.30
13928;DHT22;7036;50.834;4.718;2023-04-24T11:11:12;19.10;57.30
13928;DHT22;7036;50.834;4.718;2023-04-24T11:16:28;19.10;57.30
13928;DHT22;7036;50.834;4.718;2023-04-24T11:19:26;19.10;57.30
13928;DHT22;7036;50.834;4.718;2023-04-24T11:21:30;19.10;57.30
13928;DHT22;7036;50.834;4.718;2023-04-24T11:23:54;19.10;57.40
13928;DHT22;7036;50.834;4.718;2023-04-24T11:26:22;19.10;57.30
13928;DHT22;7036;50.834;4.718;2023-04-24T11:28:50;19.10;57.40
13928;DHT22;7036;50.834;4.718;2023-04-24T11:31:38;19.10;57.30
13928;DHT22;7036;50.834;4.718;2023-04-24T11:34:12;19.10;57.30
13928;DHT22;7036;50.834;4.718;2023-04-24T11:36:37;19.20;57.20
13928;DHT22;7036;50.834;4.718;2023-04-24T11:39:04;19.20;57.10
13928;DHT22;7036;50.834;4.718;2023-04-24T11:41:33;19.30;57.10
13928;DHT22;7036;50.834;4.718;2023-04-24T11:43:59;19.30;56.90
13928;DHT22;7036;50.834;4.718;2023-04-24T11:46:30;19.30;56.90
13928;DHT22;7036;50.834;4.718;2023-04-24T11:48:57;19.30;56.80
13928;DHT22;7036;50.834;4.718;2023-04-24T11:51:25;19.30;56.60
13928;DHT22;7036;50.834;4.718;2023-04-24T11:53:53;19.30;56.50
13928;DHT22;7036;50.834;4.718;2023-04-24T11:56:23;19.30;56.50
13928;DHT22;7036;50.834;4.718;2023-04-24T11:58:53;19.30;56.40
13928;DHT22;7036;50.834;4.718;2023-04-24T12:01:20;19.30;56.40
13928;DHT22;7036;50.834;4.718;2023-04-24T12:03:48;19.30;56.30
13928;DHT22;7036;50.834;4.718;2023-04-24T12:06:15;19.40;56.60
13928;DHT22;7036;50.834;4.718;2023-04-24T12:08:45;19.40;56.50
13928;DHT22;7036;50.834;4.718;2023-04-24T12:11:10;19.40;56.90
13928;DHT22;7036;50.834;4.718;2023-04-24T12:13:37;19.50;57.30
13928;DHT22;7036;50.834;4.718;2023-04-24T12:16:05;19.50;56.90
13928;DHT22;7036;50.834;4.718;2023-04-24T12:18:32;19.50;57.50
13928;DHT22;7036;50.834;4.718;2023-04-24T12:23:44;19.50;57.40
13928;DHT22;7036;50.834;4.718;2023-04-24T12:26:11;19.50;57.30
13928;DHT22;7036;50.834;4.718;2023-04-24T12:28:38;19.50;57.20
13928;DHT22;7036;50.834;4.718;2023-04-24T12:31:05;19.50;57.20
13928;DHT22;7036;50.834;4.718;2023-04-24T12:33:33;19.50;57.30
13928;DHT22;7036;50.834;4.718;2023-04-24T12:36:00;19.40;57.10
13928;DHT22;7036;50.834;4.718;2023-04-24T12:38:29;19.40;57.20
13928;DHT22;7036;50.834;4.718;2023-04-24T12:41:11;19.40;57.10
13928;DHT22;7036;50.834;4.718;2023-04-24T12:43:37;19.40;57.20
13928;DHT22;7036;50.834;4.718;2023-04-24T12:46:05;19.40;57.20
13928;DHT22;7036;50.834;4.718;2023-04-24T12:48:31;19.40;57.00
13928;DHT22;7036;50.834;4.718;2023-04-24T12:50:59;19.40;56.90
13928;DHT22;7036;50.834;4.718;2023-04-24T12:53:26;19.40;56.90
13928;DHT22;7036;50.834;4.718;2023-04-24T12:55:53;19.40;56.90
13928;DHT22;7036;50.834;4.718;2023-04-24T12:58:21;19.40;56.80
13928;DHT22;7036;50.834;4.718;2023-04-24T13:00:48;19.40;56.60
13928;DHT22;7036;50.834;4.718;2023-04-24T13:03:16;19.50;56.20
13928;DHT22;7036;50.834;4.718;2023-04-24T13:05:45;19.50;56.70
13928;DHT22;7036;50.834;4.718;2023-04-24T13:08:12;19.50;56.60
13928;DHT22;7036;50.834;4.718;2023-04-24T13:10:41;19.60;56.50
13928;DHT22;7036;50.834;4.718;2023-04-24T13:13:08;19.60;56.40
13928;DHT22;7036;50.834;4.718;2023-04-24T13:15:35;19.60;56.30
13928;DHT22;7036;50.834;4.718;2023-04-24T13:18:03;19.70;56.40
13928;DHT22;7036;50.834;4.718;2023-04-24T13:20:30;19.60;56.30
13928;DHT22;7036;50.834;4.718;2023-04-24T13:22:58;19.70;56.40
13928;DHT22;7036;50.834;4.718;2023-04-24T13:25:26;19.70;56.20
13928;DHT22;7036;50.834;4.718;2023-04-24T13:27:53;19.70;56.20
13928;DHT22;7036;50.834;4.718;2023-04-24T13:30:20;19.70;56.20
13928;DHT22;7036;50.834;4.718;2023-04-24T13:32:48;19.70;56.30
13928;DHT22;7036;50.834;4.718;2023-04-24T13:35:15;19.70;56.80
13928;DHT22;7036;50.834;4.718;2023-04-24T13:37:43;19.80;56.30
13928;DHT22;7036;50.834;4.718;2023-04-24T13:40:11;19.80;56.20
13928;DHT22;7036;50.834;4.718;2023-04-24T13:42:39;19.80;56.10
13928;DHT22;7036;50.834;4.718;2023-04-24T13:45:07;19.80;56.20
13928;DHT22;7036;50.834;4.718;2023-04-24T13:47:35;19.80;56.20
13928;DHT22;7036;50.834;4.718;2023-04-24T13:50:01;19.80;56.10
13928;DHT22;7036;50.834;4.718;2023-04-24T13:52:29;19.90;56.20
13928;DHT22;7036;50.834;4.718;2023-04-24T13:54:57;19.80;56.10
13928;DHT22;7036;50.834;4.718;2023-04-24T13:57:24;19.90;56.00
13928;DHT22;7036;50.834;4.718;2023-04-24T13:59:52;19.90;56.00
13928;DHT22;7036;50.834;4.718;2023-04-24T14:02:19;19.90;56.00
13928;DHT22;7036;50.834;4.718;2023-04-24T14:04:46;19.90;55.90
13928;DHT22;7036;50.834;4.718;2023-04-24T14:07:13;19.90;55.90
13928;DHT22;7036;50.834;4.718;2023-04-24T14:09:40;19.90;55.80
13928;DHT22;7036;50.834;4.718;2023-04-24T14:12:08;20.00;55.90
13928;DHT22;7036;50.834;4.718;2023-04-24T14:14:36;19.90;55.90
13928;DHT22;7036;50.834;4.718;2023-04-24T14:17:04;20.00;56.00
13928;DHT22;7036;50.834;4.718;2023-04-24T14:19:31;20.00;55.80
13928;DHT22;7036;50.834;4.718;2023-04-24T14:21:59;20.00;55.80
13928;DHT22;7036;50.834;4.718;2023-04-24T14:24:26;20.00;55.20
13928;DHT22;7036;50.834;4.718;2023-04-24T14:26:53;20.00;55.80
13928;DHT22;7036;50.834;4.718;2023-04-24T14:29:21;20.00;55.90
13928;DHT22;7036;50.834;4.718;2023-04-24T14:31:48;20.00;55.70
13928;DHT22;7036;50.834;4.718;2023-04-24T14:34:15;20.00;55.80
13928;DHT22;7036;50.834;4.718;2023-04-24T14:36:43;20.00;55.80
13928;DHT22;7036;50.834;4.718;2023-04-24T14:39:11;20.00;55.90
13928;DHT22;7036;50.834;4.718;2023-04-24T14:41:40;20.00;55.80
13928;DHT22;7036;50.834;4.718;2023-04-24T14:44:08;20.00;55.80
13928;DHT22;7036;50.834;4.718;2023-04-24T14:46:34;20.00;55.70
13928;DHT22;7036;50.834;4.718;2023-04-24T14:49:02;20.00;55.80
13928;DHT22;7036;50.834;4.718;2023-04-24T14:51:30;20.00;55.70
13928;DHT22;7036;50.834;4.718;2023-04-24T14:53:58;20.00;55.80
13928;DHT22;7036;50.834;4.718;2023-04-24T14:56:25;20.10;55.80
13928;DHT22;7036;50.834;4.718;2023-04-24T14:58:53;20.00;55.70
13928;DHT22;7036;50.834;4.718;2023-04-24T15:01:21;20.00;55.70
13928;DHT22;7036;50.834;4.718;2023-04-24T15:03:49;20.00;55.70
13928;DHT22;7036;50.834;4.718;2023-04-24T15:06:17;20.00;55.60
13928;DHT22;7036;50.834;4.718;2023-04-24T15:08:44;20.00;55.70
13928;DHT22;7036;50.834;4.718;2023-04-24T15:11:12;20.00;55.80
13928;DHT22;7036;50.834;4.718;2023-04-24T15:13:40;20.00;55.90
13928;DHT22;7036;50.834;4.718;2023-04-24T15:16:07;20.00;55.70
13928;DHT22;7036;50.834;4.718;2023-04-24T15:18:34;20.00;55.90
13928;DHT22;7036;50.834;4.718;2023-04-24T15:21:02;20.00;56.20
13928;DHT22;7036;50.834;4.718;2023-04-24T15:23:29;20.00;56.10
13928;DHT22;7036;50.834;4.718;2023-04-24T15:25:56;20.00;56.20
13928;DHT22;7036;50.834;4.718;2023-04-24T15:28:26;20.00;56.20
13928;DHT22;7036;50.834;4.718;2023-04-24T15:30:53;19.90;56.10
13928;DHT22;7036;50.834;4.718;2023-04-24T15:33:20;19.90;56.20
13928;DHT22;7036;50.834;4.718;2023-04-24T15:35:47;19.90;56.10
13928;DHT22;7036;50.834;4.718;2023-04-24T15:38:15;19.90;56.20
13928;DHT22;7036;50.834;4.718;2023-04-24T15:40:43;19.90;56.20
13928;DHT22;7036;50.834;4.718;2023-04-24T15:43:10;19.90;56.10
13928;DHT22;7036;50.834;4.718;2023-04-24T15:45:38;19.80;56.00
13928;DHT22;7036;50.834;4.718;2023-04-24T15:48:06;19.80;55.90
13928;DHT22;7036;50.834;4.718;2023-04-24T15:50:33;19.80;55.80
13928;DHT22;7036;50.834;4.718;2023-04-24T15:53:00;19.80;55.80